sensor_id;sensor_type;location;lat;lon;timestamp;P1;durP1;ratioP1;P2;durP2;ratioP2
15142;SDS011;7672;50.834;6.286;2022-10-12T00:02:22;5.63;;;3.87;;
15142;SDS011;7672;50.834;6.286;2022-10-12T00:04:49;7.57;;;3.90;;
15142;SDS011;7672;50.834;6.286;2022-10-12T00:07:15;9.47;;;3.67;;
15142;SDS011;7672;50.834;6.286;2022-10-12T00:09:42;9.17;;;4.53;;
15142;SDS011;7672;50.834;6.286;2022-10-12T00:12:09;10.27;;;4.00;;
15142;SDS011;7672;50.834;6.286;2022-10-12T00:14:36;8.57;;;3.97;;
15142;SDS011;7672;50.834;6.286;2022-10-12T00:17:03;7.67;;;4.00;;
15142;SDS011;7672;50.834;6.286;2022-10-12T00:19:30;6.27;;;3.70;;
15142;SDS011;7672;50.834;6.286;2022-10-12T00:21:57;10.10;;;4.37;;
15142;SDS011;7672;50.834;6.286;2022-10-12T00:24:24;9.13;;;3.73;;
15142;SDS011;7672;50.834;6.286;2022-10-12T00:26:51;7.93;;;4.00;;
15142;SDS011;7672;50.834;6.286;2022-10-12T00:29:17;6.53;;;3.80;;
15142;SDS011;7672;50.834;6.286;2022-10-12T00:31:44;8.37;;;3.53;;
15142;SDS011;7672;50.834;6.286;2022-10-12T00:34:11;6.73;;;3.47;;
15142;SDS011;7672;50.834;6.286;2022-10-12T00:36:38;9.50;;;3.50;;
15142;SDS011;7672;50.834;6.286;2022-10-12T00:39:06;8.67;;;3.90;;
15142;SDS011;7672;50.834;6.286;2022-10-12T00:41:36;6.53;;;3.50;;
15142;SDS011;7672;50.834;6.286;2022-10-12T00:47:19;4.63;;;3.50;;
15142;SDS011;7672;50.834;6.286;2022-10-12T00:50:09;6.17;;;3.50;;
15142;SDS011;7672;50.834;6.286;2022-10-12T00:55:24;8.20;;;3.77;;
15142;SDS011;7672;50.834;6.286;2022-10-12T00:57:55;7.23;;;3.67;;
15142;SDS011;7672;50.834;6.286;2022-10-12T01:00:23;5.47;;;3.80;;
15142;SDS011;7672;50.834;6.286;2022-10-12T01:02:52;5.23;;;3.30;;
15142;SDS011;7672;50.834;6.286;2022-10-12T01:05:20;6.87;;;3.40;;
15142;SDS011;7672;50.834;6.286;2022-10-12T01:07:49;8.07;;;3.77;;
15142;SDS011;7672;50.834;6.286;2022-10-12T01:10:16;8.83;;;3.60;;
15142;SDS011;7672;50.834;6.286;2022-10-12T01:12:43;7.90;;;3.93;;
15142;SDS011;7672;50.834;6.286;2022-10-12T01:15:14;7.27;;;3.80;;
15142;SDS011;7672;50.834;6.286;2022-10-12T01:17:49;8.80;;;3.87;;
15142;SDS011;7672;50.834;6.286;2022-10-12T01:26:12;8.00;;;3.33;;
15142;SDS011;7672;50.834;6.286;2022-10-12T01:32:30;11.43;;;3.43;;
15142;SDS011;7672;50.834;6.286;2022-10-12T01:36:11;7.87;;;3.80;;
15142;SDS011;7672;50.834;6.286;2022-10-12T01:38:31;7.63;;;3.60;;
15142;SDS011;7672;50.834;6.286;2022-10-12T01:41:15;7.40;;;3.50;;
15142;SDS011;7672;50.834;6.286;2022-10-12T01:43:53;11.87;;;5.10;;
15142;SDS011;7672;50.834;6.286;2022-10-12T01:48:50;5.53;;;3.40;;
15142;SDS011;7672;50.834;6.286;2022-10-12T01:57:09;12.77;;;3.80;;
15142;SDS011;7672;50.834;6.286;2022-10-12T02:00:06;10.83;;;3.37;;
15142;SDS011;7672;50.834;6.286;2022-10-12T02:05:26;6.40;;;3.13;;
15142;SDS011;7672;50.834;6.286;2022-10-12T02:11:05;6.57;;;3.63;;
15142;SDS011;7672;50.834;6.286;2022-10-12T02:13:44;5.10;;;3.17;;
15142;SDS011;7672;50.834;6.286;2022-10-12T02:16:38;5.13;;;3.20;;
15142;SDS011;7672;50.834;6.286;2022-10-12T02:19:13;7.90;;;3.50;;
15142;SDS011;7672;50.834;6.286;2022-10-12T02:21:46;6.80;;;3.60;;
15142;SDS011;7672;50.834;6.286;2022-10-12T02:24:16;6.00;;;3.27;;
15142;SDS011;7672;50.834;6.286;2022-10-12T02:26:46;6.80;;;3.53;;
15142;SDS011;7672;50.834;6.286;2022-10-12T02:29:22;7.80;;;3.67;;
15142;SDS011;7672;50.834;6.286;2022-10-12T02:32:19;8.13;;;3.70;;
15142;SDS011;7672;50.834;6.286;2022-10-12T02:35:06;4.77;;;3.03;;
15142;SDS011;7672;50.834;6.286;2022-10-12T02:40:14;9.13;;;3.87;;
15142;SDS011;7672;50.834;6.286;2022-10-12T02:42:57;7.90;;;3.50;;
15142;SDS011;7672;50.834;6.286;2022-10-12T02:45:37;4.70;;;3.17;;
15142;SDS011;7672;50.834;6.286;2022-10-12T02:48:10;8.10;;;3.80;;
15142;SDS011;7672;50.834;6.286;2022-10-12T02:50:42;10.07;;;3.53;;
15142;SDS011;7672;50.834;6.286;2022-10-12T02:53:11;9.50;;;3.43;;
15142;SDS011;7672;50.834;6.286;2022-10-12T02:55:52;11.43;;;3.90;;
15142;SDS011;7672;50.834;6.286;2022-10-12T02:58:32;6.57;;;3.57;;
15142;SDS011;7672;50.834;6.286;2022-10-12T03:00:58;6.43;;;2.97;;
15142;SDS011;7672;50.834;6.286;2022-10-12T03:03:25;6.63;;;3.83;;
15142;SDS011;7672;50.834;6.286;2022-10-12T03:05:52;5.93;;;3.30;;
15142;SDS011;7672;50.834;6.286;2022-10-12T03:08:19;6.23;;;3.43;;
15142;SDS011;7672;50.834;6.286;2022-10-12T03:10:46;6.20;;;3.40;;
15142;SDS011;7672;50.834;6.286;2022-10-12T03:13:13;6.33;;;3.23;;
15142;SDS011;7672;50.834;6.286;2022-10-12T03:15:39;6.67;;;3.07;;
15142;SDS011;7672;50.834;6.286;2022-10-12T03:18:06;6.03;;;3.30;;
15142;SDS011;7672;50.834;6.286;2022-10-12T03:20:33;8.37;;;3.37;;
15142;SDS011;7672;50.834;6.286;2022-10-12T03:23:00;5.30;;;3.43;;
15142;SDS011;7672;50.834;6.286;2022-10-12T03:25:27;6.07;;;3.43;;
15142;SDS011;7672;50.834;6.286;2022-10-12T03:27:53;8.27;;;4.00;;
15142;SDS011;7672;50.834;6.286;2022-10-12T03:30:20;6.60;;;3.53;;
15142;SDS011;7672;50.834;6.286;2022-10-12T03:32:47;6.30;;;3.90;;
15142;SDS011;7672;50.834;6.286;2022-10-12T03:35:14;8.47;;;4.30;;
15142;SDS011;7672;50.834;6.286;2022-10-12T03:37:41;8.73;;;3.87;;
15142;SDS011;7672;50.834;6.286;2022-10-12T03:40:08;9.43;;;4.00;;
15142;SDS011;7672;50.834;6.286;2022-10-12T03:42:35;7.63;;;3.73;;
15142;SDS011;7672;50.834;6.286;2022-10-12T03:45:02;11.50;;;4.03;;
15142;SDS011;7672;50.834;6.286;2022-10-12T03:47:30;6.27;;;3.70;;
15142;SDS011;7672;50.834;6.286;2022-10-12T03:49:56;9.83;;;4.07;;
15142;SDS011;7672;50.834;6.286;2022-10-12T03:52:23;5.67;;;3.83;;
15142;SDS011;7672;50.834;6.286;2022-10-12T03:54:50;5.77;;;3.50;;
15142;SDS011;7672;50.834;6.286;2022-10-12T03:57:16;10.47;;;3.77;;
15142;SDS011;7672;50.834;6.286;2022-10-12T03:59:43;8.43;;;3.97;;
15142;SDS011;7672;50.834;6.286;2022-10-12T04:02:10;8.87;;;4.60;;
15142;SDS011;7672;50.834;6.286;2022-10-12T04:04:42;6.07;;;3.80;;
15142;SDS011;7672;50.834;6.286;2022-10-12T04:07:09;9.30;;;3.90;;
15142;SDS011;7672;50.834;6.286;2022-10-12T04:09:36;10.23;;;3.73;;
15142;SDS011;7672;50.834;6.286;2022-10-12T04:12:03;6.00;;;3.33;;
15142;SDS011;7672;50.834;6.286;2022-10-12T04:14:30;7.07;;;3.97;;
15142;SDS011;7672;50.834;6.286;2022-10-12T04:16:57;7.73;;;4.10;;
15142;SDS011;7672;50.834;6.286;2022-10-12T04:19:24;7.43;;;3.43;;
15142;SDS011;7672;50.834;6.286;2022-10-12T04:21:51;9.67;;;4.10;;
15142;SDS011;7672;50.834;6.286;2022-10-12T04:24:18;10.23;;;4.70;;
15142;SDS011;7672;50.834;6.286;2022-10-12T04:26:45;6.97;;;3.90;;
15142;SDS011;7672;50.834;6.286;2022-10-12T04:29:12;7.60;;;3.53;;
15142;SDS011;7672;50.834;6.286;2022-10-12T04:31:39;9.13;;;4.83;;
15142;SDS011;7672;50.834;6.286;2022-10-12T04:34:10;9.47;;;4.27;;
15142;SDS011;7672;50.834;6.286;2022-10-12T04:36:37;11.03;;;4.33;;
15142;SDS011;7672;50.834;6.286;2022-10-12T04:39:04;7.77;;;4.37;;
15142;SDS011;7672;50.834;6.286;2022-10-12T04:41:31;14.63;;;4.73;;
15142;SDS011;7672;50.834;6.286;2022-10-12T04:43:58;9.70;;;3.77;;
15142;SDS011;7672;50.834;6.286;2022-10-12T04:46:25;7.93;;;4.07;;
15142;SDS011;7672;50.834;6.286;2022-10-12T04:48:51;8.10;;;4.23;;
15142;SDS011;7672;50.834;6.286;2022-10-12T04:51:18;11.90;;;4.40;;
15142;SDS011;7672;50.834;6.286;2022-10-12T04:53:45;6.97;;;3.40;;
15142;SDS011;7672;50.834;6.286;2022-10-12T04:56:12;8.37;;;4.33;;
15142;SDS011;7672;50.834;6.286;2022-10-12T04:58:38;6.07;;;3.70;;
15142;SDS011;7672;50.834;6.286;2022-10-12T05:01:05;6.13;;;3.70;;
15142;SDS011;7672;50.834;6.286;2022-10-12T05:03:32;7.60;;;3.90;;
15142;SDS011;7672;50.834;6.286;2022-10-12T05:06:06;8.93;;;3.53;;
15142;SDS011;7672;50.834;6.286;2022-10-12T05:08:32;9.00;;;3.70;;
15142;SDS011;7672;50.834;6.286;2022-10-12T05:10:59;7.07;;;3.77;;
15142;SDS011;7672;50.834;6.286;2022-10-12T05:13:26;8.27;;;3.67;;
15142;SDS011;7672;50.834;6.286;2022-10-12T05:15:53;7.63;;;4.07;;
15142;SDS011;7672;50.834;6.286;2022-10-12T05:18:20;9.17;;;3.50;;
15142;SDS011;7672;50.834;6.286;2022-10-12T05:20:47;7.00;;;3.40;;
15142;SDS011;7672;50.834;6.286;2022-10-12T05:23:19;5.67;;;3.83;;
15142;SDS011;7672;50.834;6.286;2022-10-12T05:25:46;7.83;;;3.97;;
15142;SDS011;7672;50.834;6.286;2022-10-12T05:28:13;6.40;;;3.63;;
15142;SDS011;7672;50.834;6.286;2022-10-12T05:30:39;5.97;;;3.70;;
15142;SDS011;7672;50.834;6.286;2022-10-12T05:33:06;5.87;;;3.30;;
15142;SDS011;7672;50.834;6.286;2022-10-12T05:35:33;5.10;;;3.00;;
15142;SDS011;7672;50.834;6.286;2022-10-12T05:38:00;8.63;;;3.90;;
15142;SDS011;7672;50.834;6.286;2022-10-12T05:40:27;6.70;;;4.27;;
15142;SDS011;7672;50.834;6.286;2022-10-12T05:42:53;11.53;;;3.57;;
15142;SDS011;7672;50.834;6.286;2022-10-12T05:45:20;7.63;;;4.07;;
15142;SDS011;7672;50.834;6.286;2022-10-12T05:47:47;6.60;;;3.80;;
15142;SDS011;7672;50.834;6.286;2022-10-12T05:50:14;8.53;;;3.83;;
15142;SDS011;7672;50.834;6.286;2022-10-12T05:52:41;6.27;;;4.07;;
15142;SDS011;7672;50.834;6.286;2022-10-12T05:55:07;9.67;;;4.63;;
15142;SDS011;7672;50.834;6.286;2022-10-12T05:57:34;9.43;;;3.37;;
15142;SDS011;7672;50.834;6.286;2022-10-12T06:00:03;9.10;;;4.20;;
15142;SDS011;7672;50.834;6.286;2022-10-12T06:02:33;9.93;;;4.00;;
15142;SDS011;7672;50.834;6.286;2022-10-12T06:05:01;11.67;;;4.43;;
15142;SDS011;7672;50.834;6.286;2022-10-12T06:07:28;8.60;;;3.70;;
15142;SDS011;7672;50.834;6.286;2022-10-12T06:09:55;9.13;;;3.50;;
15142;SDS011;7672;50.834;6.286;2022-10-12T06:12:22;15.47;;;4.30;;
15142;SDS011;7672;50.834;6.286;2022-10-12T06:14:49;6.03;;;3.70;;
15142;SDS011;7672;50.834;6.286;2022-10-12T06:17:17;7.43;;;3.67;;
15142;SDS011;7672;50.834;6.286;2022-10-12T06:19:44;14.50;;;4.30;;
15142;SDS011;7672;50.834;6.286;2022-10-12T06:22:11;8.70;;;3.90;;
15142;SDS011;7672;50.834;6.286;2022-10-12T06:24:37;10.63;;;3.63;;
15142;SDS011;7672;50.834;6.286;2022-10-12T06:27:04;6.67;;;3.83;;
15142;SDS011;7672;50.834;6.286;2022-10-12T06:29:31;7.77;;;4.07;;
15142;SDS011;7672;50.834;6.286;2022-10-12T06:31:58;12.33;;;4.37;;
15142;SDS011;7672;50.834;6.286;2022-10-12T06:34:25;10.10;;;3.90;;
15142;SDS011;7672;50.834;6.286;2022-10-12T06:36:52;9.63;;;4.40;;
15142;SDS011;7672;50.834;6.286;2022-10-12T06:39:24;7.57;;;3.37;;
15142;SDS011;7672;50.834;6.286;2022-10-12T06:41:51;13.73;;;5.10;;
15142;SDS011;7672;50.834;6.286;2022-10-12T06:44:19;12.93;;;5.53;;
15142;SDS011;7672;50.834;6.286;2022-10-12T06:46:48;21.37;;;9.50;;
15142;SDS011;7672;50.834;6.286;2022-10-12T06:49:18;32.33;;;12.23;;
15142;SDS011;7672;50.834;6.286;2022-10-12T06:51:45;28.40;;;11.03;;
15142;SDS011;7672;50.834;6.286;2022-10-12T06:54:12;30.67;;;10.10;;
15142;SDS011;7672;50.834;6.286;2022-10-12T06:56:39;14.33;;;7.60;;
15142;SDS011;7672;50.834;6.286;2022-10-12T06:59:05;13.57;;;6.00;;
15142;SDS011;7672;50.834;6.286;2022-10-12T07:01:33;7.87;;;4.43;;
15142;SDS011;7672;50.834;6.286;2022-10-12T07:04:00;11.00;;;5.03;;
15142;SDS011;7672;50.834;6.286;2022-10-12T07:06:27;11.37;;;5.07;;
15142;SDS011;7672;50.834;6.286;2022-10-12T07:08:54;16.10;;;5.53;;
15142;SDS011;7672;50.834;6.286;2022-10-12T07:11:21;11.60;;;5.77;;
15142;SDS011;7672;50.834;6.286;2022-10-12T07:13:47;10.87;;;5.57;;
15142;SDS011;7672;50.834;6.286;2022-10-12T07:16:14;10.93;;;5.10;;
15142;SDS011;7672;50.834;6.286;2022-10-12T07:18:41;12.07;;;4.50;;
15142;SDS011;7672;50.834;6.286;2022-10-12T07:21:08;10.00;;;5.37;;
15142;SDS011;7672;50.834;6.286;2022-10-12T07:23:35;12.47;;;5.30;;
15142;SDS011;7672;50.834;6.286;2022-10-12T07:26:07;10.07;;;5.53;;
15142;SDS011;7672;50.834;6.286;2022-10-12T07:28:34;12.63;;;5.37;;
15142;SDS011;7672;50.834;6.286;2022-10-12T07:31:03;14.60;;;4.97;;
15142;SDS011;7672;50.834;6.286;2022-10-12T07:33:32;13.27;;;5.47;;
15142;SDS011;7672;50.834;6.286;2022-10-12T07:36:01;7.77;;;4.83;;
15142;SDS011;7672;50.834;6.286;2022-10-12T07:38:40;8.53;;;4.60;;
15142;SDS011;7672;50.834;6.286;2022-10-12T07:41:11;11.17;;;5.50;;
15142;SDS011;7672;50.834;6.286;2022-10-12T07:43:38;6.57;;;3.95;;
15142;SDS011;7672;50.834;6.286;2022-10-12T07:46:05;9.23;;;4.10;;
15142;SDS011;7672;50.834;6.286;2022-10-12T07:48:32;8.00;;;4.28;;
15142;SDS011;7672;50.834;6.286;2022-10-12T07:51:03;9.18;;;4.65;;
15142;SDS011;7672;50.834;6.286;2022-10-12T07:53:35;8.23;;;4.43;;
15142;SDS011;7672;50.834;6.286;2022-10-12T07:56:05;6.75;;;4.10;;
15142;SDS011;7672;50.834;6.286;2022-10-12T07:58:40;7.65;;;4.60;;
15142;SDS011;7672;50.834;6.286;2022-10-12T08:01:22;8.75;;;4.03;;
15142;SDS011;7672;50.834;6.286;2022-10-12T08:03:53;12.43;;;5.53;;
15142;SDS011;7672;50.834;6.286;2022-10-12T08:06:27;7.70;;;4.32;;
15142;SDS011;7672;50.834;6.286;2022-10-12T08:08:58;7.72;;;4.30;;
15142;SDS011;7672;50.834;6.286;2022-10-12T08:11:27;5.97;;;4.13;;
15142;SDS011;7672;50.834;6.286;2022-10-12T08:13:54;6.85;;;3.80;;
15142;SDS011;7672;50.834;6.286;2022-10-12T08:16:21;7.00;;;4.20;;
15142;SDS011;7672;50.834;6.286;2022-10-12T08:18:49;7.18;;;3.97;;
15142;SDS011;7672;50.834;6.286;2022-10-12T08:21:17;8.82;;;4.57;;
15142;SDS011;7672;50.834;6.286;2022-10-12T08:23:44;8.63;;;4.13;;
15142;SDS011;7672;50.834;6.286;2022-10-12T08:26:12;10.98;;;4.78;;
15142;SDS011;7672;50.834;6.286;2022-10-12T08:28:40;7.85;;;3.97;;
15142;SDS011;7672;50.834;6.286;2022-10-12T08:31:09;9.13;;;4.10;;
15142;SDS011;7672;50.834;6.286;2022-10-12T08:33:39;8.48;;;4.85;;
15142;SDS011;7672;50.834;6.286;2022-10-12T08:36:06;9.48;;;4.80;;
15142;SDS011;7672;50.834;6.286;2022-10-12T08:38:34;8.75;;;4.85;;
15142;SDS011;7672;50.834;6.286;2022-10-12T08:50:04;11.00;;;5.30;;
15142;SDS011;7672;50.834;6.286;2022-10-12T08:52:42;8.93;;;5.20;;
15142;SDS011;7672;50.834;6.286;2022-10-12T08:58:07;6.93;;;4.70;;
15142;SDS011;7672;50.834;6.286;2022-10-12T09:01:23;8.43;;;6.00;;
15142;SDS011;7672;50.834;6.286;2022-10-12T09:04:01;7.78;;;5.32;;
15142;SDS011;7672;50.834;6.286;2022-10-12T09:06:49;9.65;;;5.85;;
15142;SDS011;7672;50.834;6.286;2022-10-12T09:18:15;8.25;;;4.35;;
15142;SDS011;7672;50.834;6.286;2022-10-12T09:20:50;7.18;;;4.43;;
15142;SDS011;7672;50.834;6.286;2022-10-12T09:23:22;11.85;;;5.10;;
15142;SDS011;7672;50.834;6.286;2022-10-12T09:26:01;6.85;;;4.28;;
15142;SDS011;7672;50.834;6.286;2022-10-12T09:28:39;7.50;;;3.75;;
15142;SDS011;7672;50.834;6.286;2022-10-12T09:34:17;4.88;;;3.50;;
15142;SDS011;7672;50.834;6.286;2022-10-12T09:36:44;6.45;;;3.85;;
15142;SDS011;7672;50.834;6.286;2022-10-12T09:39:16;8.80;;;4.38;;
15142;SDS011;7672;50.834;6.286;2022-10-12T09:41:54;6.28;;;3.90;;
15142;SDS011;7672;50.834;6.286;2022-10-12T09:44:29;7.45;;;3.47;;
15142;SDS011;7672;50.834;6.286;2022-10-12T09:47:05;5.65;;;3.50;;
15142;SDS011;7672;50.834;6.286;2022-10-12T09:49:49;6.15;;;3.33;;
15142;SDS011;7672;50.834;6.286;2022-10-12T09:52:26;5.97;;;3.47;;
15142;SDS011;7672;50.834;6.286;2022-10-12T09:57:42;6.25;;;3.40;;
15142;SDS011;7672;50.834;6.286;2022-10-12T10:00:23;4.88;;;3.10;;
15142;SDS011;7672;50.834;6.286;2022-10-12T10:02:58;9.70;;;7.85;;
15142;SDS011;7672;50.834;6.286;2022-10-12T10:10:52;9.45;;;2.95;;
15142;SDS011;7672;50.834;6.286;2022-10-12T10:13:24;6.00;;;2.80;;
15142;SDS011;7672;50.834;6.286;2022-10-12T10:16:05;5.57;;;2.88;;
15142;SDS011;7672;50.834;6.286;2022-10-12T10:18:37;8.00;;;2.78;;
15142;SDS011;7672;50.834;6.286;2022-10-12T10:21:23;7.22;;;2.88;;
15142;SDS011;7672;50.834;6.286;2022-10-12T10:24:02;8.57;;;3.10;;
15142;SDS011;7672;50.834;6.286;2022-10-12T10:26:52;5.07;;;2.85;;
15142;SDS011;7672;50.834;6.286;2022-10-12T10:32:19;5.07;;;3.58;;
15142;SDS011;7672;50.834;6.286;2022-10-12T10:35:34;4.85;;;2.88;;
15142;SDS011;7672;50.834;6.286;2022-10-12T10:37:48;4.70;;;3.08;;
15142;SDS011;7672;50.834;6.286;2022-10-12T10:40:21;5.38;;;3.40;;
15142;SDS011;7672;50.834;6.286;2022-10-12T10:42:54;6.30;;;3.75;;
15142;SDS011;7672;50.834;6.286;2022-10-12T10:45:26;5.43;;;3.60;;
15142;SDS011;7672;50.834;6.286;2022-10-12T10:47:57;4.80;;;4.22;;
15142;SDS011;7672;50.834;6.286;2022-10-12T10:50:35;5.45;;;4.22;;
15142;SDS011;7672;50.834;6.286;2022-10-12T10:53:07;6.32;;;3.70;;
15142;SDS011;7672;50.834;6.286;2022-10-12T10:55:46;6.38;;;4.28;;
15142;SDS011;7672;50.834;6.286;2022-10-12T10:58:33;4.60;;;3.92;;
15142;SDS011;7672;50.834;6.286;2022-10-12T11:01:13;4.90;;;4.13;;
15142;SDS011;7672;50.834;6.286;2022-10-12T11:04:08;7.57;;;4.65;;
15142;SDS011;7672;50.834;6.286;2022-10-12T11:06:49;6.80;;;5.07;;
15142;SDS011;7672;50.834;6.286;2022-10-12T11:09:23;5.80;;;5.00;;
15142;SDS011;7672;50.834;6.286;2022-10-12T11:12:06;7.13;;;4.85;;
15142;SDS011;7672;50.834;6.286;2022-10-12T11:14:48;6.07;;;4.80;;
15142;SDS011;7672;50.834;6.286;2022-10-12T11:17:30;6.95;;;5.60;;
15142;SDS011;7672;50.834;6.286;2022-10-12T11:23:15;9.18;;;6.38;;
15142;SDS011;7672;50.834;6.286;2022-10-12T11:26:14;9.23;;;5.80;;
15142;SDS011;7672;50.834;6.286;2022-10-12T11:28:42;9.00;;;6.13;;
15142;SDS011;7672;50.834;6.286;2022-10-12T11:31:20;8.98;;;6.10;;
15142;SDS011;7672;50.834;6.286;2022-10-12T11:33:53;8.30;;;6.20;;
15142;SDS011;7672;50.834;6.286;2022-10-12T11:36:25;7.47;;;5.65;;
15142;SDS011;7672;50.834;6.286;2022-10-12T11:38:59;8.88;;;5.85;;
15142;SDS011;7672;50.834;6.286;2022-10-12T11:41:35;9.35;;;5.80;;
15142;SDS011;7672;50.834;6.286;2022-10-12T11:44:36;6.35;;;5.70;;
15142;SDS011;7672;50.834;6.286;2022-10-12T11:47:29;10.27;;;5.57;;
15142;SDS011;7672;50.834;6.286;2022-10-12T11:50:14;8.65;;;5.85;;
15142;SDS011;7672;50.834;6.286;2022-10-12T11:53:10;8.90;;;5.40;;
15142;SDS011;7672;50.834;6.286;2022-10-12T11:56:09;8.18;;;5.32;;
15142;SDS011;7672;50.834;6.286;2022-10-12T11:58:49;9.68;;;5.90;;
15142;SDS011;7672;50.834;6.286;2022-10-12T12:01:31;6.88;;;6.10;;
15142;SDS011;7672;50.834;6.286;2022-10-12T12:04:13;9.43;;;6.00;;
15142;SDS011;7672;50.834;6.286;2022-10-12T12:09:48;9.35;;;5.20;;
15142;SDS011;7672;50.834;6.286;2022-10-12T12:14:58;5.55;;;4.57;;
15142;SDS011;7672;50.834;6.286;2022-10-12T12:17:31;8.13;;;5.20;;
15142;SDS011;7672;50.834;6.286;2022-10-12T12:20:00;6.72;;;5.07;;
15142;SDS011;7672;50.834;6.286;2022-10-12T12:22:49;7.53;;;5.20;;
15142;SDS011;7672;50.834;6.286;2022-10-12T12:25:29;5.47;;;4.90;;
15142;SDS011;7672;50.834;6.286;2022-10-12T12:27:58;5.78;;;4.90;;
15142;SDS011;7672;50.834;6.286;2022-10-12T12:30:54;6.10;;;4.20;;
15142;SDS011;7672;50.834;6.286;2022-10-12T12:33:27;9.63;;;5.35;;
15142;SDS011;7672;50.834;6.286;2022-10-12T12:36:25;5.60;;;5.03;;
15142;SDS011;7672;50.834;6.286;2022-10-12T12:39:04;7.20;;;5.25;;
15142;SDS011;7672;50.834;6.286;2022-10-12T12:41:47;7.38;;;5.18;;
15142;SDS011;7672;50.834;6.286;2022-10-12T12:49:53;6.22;;;5.05;;
15142;SDS011;7672;50.834;6.286;2022-10-12T12:52:26;6.05;;;4.30;;
15142;SDS011;7672;50.834;6.286;2022-10-12T12:55:10;5.30;;;3.90;;
15142;SDS011;7672;50.834;6.286;2022-10-12T13:01:09;7.38;;;4.60;;
15142;SDS011;7672;50.834;6.286;2022-10-12T13:03:58;7.25;;;5.00;;
15142;SDS011;7672;50.834;6.286;2022-10-12T13:09:46;4.43;;;3.05;;
15142;SDS011;7672;50.834;6.286;2022-10-12T13:16:08;3.75;;;3.38;;
15142;SDS011;7672;50.834;6.286;2022-10-12T13:19:33;6.43;;;3.60;;
15142;SDS011;7672;50.834;6.286;2022-10-12T13:22:03;7.95;;;3.35;;
15142;SDS011;7672;50.834;6.286;2022-10-12T13:24:57;4.68;;;3.25;;
15142;SDS011;7672;50.834;6.286;2022-10-12T13:27:43;5.75;;;3.60;;
15142;SDS011;7672;50.834;6.286;2022-10-12T13:30:18;5.85;;;3.30;;
15142;SDS011;7672;50.834;6.286;2022-10-12T13:35:41;8.32;;;3.90;;
15142;SDS011;7672;50.834;6.286;2022-10-12T13:38:21;8.02;;;3.88;;
15142;SDS011;7672;50.834;6.286;2022-10-12T13:46:01;5.95;;;3.10;;
15142;SDS011;7672;50.834;6.286;2022-10-12T13:48:29;5.05;;;3.15;;
15142;SDS011;7672;50.834;6.286;2022-10-12T13:51:27;4.88;;;3.20;;
15142;SDS011;7672;50.834;6.286;2022-10-12T13:53:56;3.50;;;3.20;;
15142;SDS011;7672;50.834;6.286;2022-10-12T13:56:24;6.70;;;3.90;;
15142;SDS011;7672;50.834;6.286;2022-10-12T13:59:00;7.05;;;3.90;;
15142;SDS011;7672;50.834;6.286;2022-10-12T14:01:46;5.28;;;3.30;;
15142;SDS011;7672;50.834;6.286;2022-10-12T14:04:32;4.53;;;3.45;;
15142;SDS011;7672;50.834;6.286;2022-10-12T14:07:04;5.30;;;3.45;;
15142;SDS011;7672;50.834;6.286;2022-10-12T14:09:44;8.00;;;3.53;;
15142;SDS011;7672;50.834;6.286;2022-10-12T14:12:17;8.55;;;4.18;;
15142;SDS011;7672;50.834;6.286;2022-10-12T14:14:50;9.10;;;3.50;;
15142;SDS011;7672;50.834;6.286;2022-10-12T14:17:19;5.13;;;3.15;;
15142;SDS011;7672;50.834;6.286;2022-10-12T14:19:50;3.40;;;3.10;;
15142;SDS011;7672;50.834;6.286;2022-10-12T14:27:45;5.22;;;3.30;;
15142;SDS011;7672;50.834;6.286;2022-10-12T14:30:21;5.82;;;3.20;;
15142;SDS011;7672;50.834;6.286;2022-10-12T14:32:54;7.20;;;3.70;;
15142;SDS011;7672;50.834;6.286;2022-10-12T14:35:35;7.88;;;3.08;;
15142;SDS011;7672;50.834;6.286;2022-10-12T14:41:34;9.43;;;3.85;;
15142;SDS011;7672;50.834;6.286;2022-10-12T14:46:36;7.55;;;3.25;;
15142;SDS011;7672;50.834;6.286;2022-10-12T14:49:14;7.75;;;3.42;;
15142;SDS011;7672;50.834;6.286;2022-10-12T14:51:44;5.57;;;3.28;;
15142;SDS011;7672;50.834;6.286;2022-10-12T14:54:13;4.22;;;3.17;;
15142;SDS011;7672;50.834;6.286;2022-10-12T14:56:40;6.72;;;3.42;;
15142;SDS011;7672;50.834;6.286;2022-10-12T14:59:07;7.13;;;4.70;;
15142;SDS011;7672;50.834;6.286;2022-10-12T15:01:34;6.85;;;3.60;;
15142;SDS011;7672;50.834;6.286;2022-10-12T15:04:08;5.10;;;4.05;;
15142;SDS011;7672;50.834;6.286;2022-10-12T15:06:38;5.20;;;4.18;;
15142;SDS011;7672;50.834;6.286;2022-10-12T15:09:05;9.97;;;4.30;;
15142;SDS011;7672;50.834;6.286;2022-10-12T15:11:32;7.17;;;3.93;;
15142;SDS011;7672;50.834;6.286;2022-10-12T15:13:59;9.97;;;4.20;;
15142;SDS011;7672;50.834;6.286;2022-10-12T15:16:26;6.37;;;3.80;;
15142;SDS011;7672;50.834;6.286;2022-10-12T15:18:54;5.80;;;3.80;;
15142;SDS011;7672;50.834;6.286;2022-10-12T15:21:21;7.23;;;4.60;;
15142;SDS011;7672;50.834;6.286;2022-10-12T15:23:48;8.83;;;5.10;;
15142;SDS011;7672;50.834;6.286;2022-10-12T15:26:16;8.07;;;4.43;;
15142;SDS011;7672;50.834;6.286;2022-10-12T15:28:43;6.37;;;4.30;;
15142;SDS011;7672;50.834;6.286;2022-10-12T15:31:12;11.30;;;5.03;;
15142;SDS011;7672;50.834;6.286;2022-10-12T15:33:43;7.70;;;4.53;;
15142;SDS011;7672;50.834;6.286;2022-10-12T15:36:10;5.00;;;4.50;;
15142;SDS011;7672;50.834;6.286;2022-10-12T15:38:37;7.70;;;4.73;;
15142;SDS011;7672;50.834;6.286;2022-10-12T15:41:04;7.83;;;4.70;;
15142;SDS011;7672;50.834;6.286;2022-10-12T15:43:43;6.97;;;5.13;;
15142;SDS011;7672;50.834;6.286;2022-10-12T15:46:10;8.17;;;6.10;;
15142;SDS011;7672;50.834;6.286;2022-10-12T15:48:37;10.13;;;6.53;;
15142;SDS011;7672;50.834;6.286;2022-10-12T15:51:07;11.37;;;5.77;;
15142;SDS011;7672;50.834;6.286;2022-10-12T15:53:43;13.67;;;9.60;;
15142;SDS011;7672;50.834;6.286;2022-10-12T15:56:10;16.07;;;10.23;;
15142;SDS011;7672;50.834;6.286;2022-10-12T15:58:40;11.60;;;7.73;;
15142;SDS011;7672;50.834;6.286;2022-10-12T16:01:11;14.23;;;9.20;;
15142;SDS011;7672;50.834;6.286;2022-10-12T16:03:40;10.13;;;7.27;;
15142;SDS011;7672;50.834;6.286;2022-10-12T16:06:08;11.20;;;6.90;;
15142;SDS011;7672;50.834;6.286;2022-10-12T16:08:35;12.37;;;6.70;;
15142;SDS011;7672;50.834;6.286;2022-10-12T16:11:06;8.60;;;5.87;;
15142;SDS011;7672;50.834;6.286;2022-10-12T16:13:39;9.27;;;6.10;;
15142;SDS011;7672;50.834;6.286;2022-10-12T16:16:15;10.17;;;5.77;;
15142;SDS011;7672;50.834;6.286;2022-10-12T16:18:43;9.30;;;5.87;;
15142;SDS011;7672;50.834;6.286;2022-10-12T16:21:10;10.70;;;6.30;;
15142;SDS011;7672;50.834;6.286;2022-10-12T16:23:37;10.50;;;5.83;;
15142;SDS011;7672;50.834;6.286;2022-10-12T16:26:10;8.27;;;5.60;;
15142;SDS011;7672;50.834;6.286;2022-10-12T16:28:39;9.20;;;6.10;;
15142;SDS011;7672;50.834;6.286;2022-10-12T16:31:08;11.47;;;6.80;;
15142;SDS011;7672;50.834;6.286;2022-10-12T16:33:37;11.30;;;6.80;;
15142;SDS011;7672;50.834;6.286;2022-10-12T16:36:11;11.80;;;7.43;;
15142;SDS011;7672;50.834;6.286;2022-10-12T16:38:41;10.40;;;7.00;;
15142;SDS011;7672;50.834;6.286;2022-10-12T16:41:13;10.70;;;7.27;;
15142;SDS011;7672;50.834;6.286;2022-10-12T16:43:42;11.13;;;7.77;;
15142;SDS011;7672;50.834;6.286;2022-10-12T16:46:09;11.97;;;7.40;;
15142;SDS011;7672;50.834;6.286;2022-10-12T16:48:36;16.20;;;7.40;;
15142;SDS011;7672;50.834;6.286;2022-10-12T16:51:10;12.97;;;7.00;;
15142;SDS011;7672;50.834;6.286;2022-10-12T16:53:38;11.27;;;7.20;;
15142;SDS011;7672;50.834;6.286;2022-10-12T16:56:07;12.13;;;7.00;;
15142;SDS011;7672;50.834;6.286;2022-10-12T16:58:34;9.80;;;6.40;;
15142;SDS011;7672;50.834;6.286;2022-10-12T17:01:08;12.50;;;6.63;;
15142;SDS011;7672;50.834;6.286;2022-10-12T17:03:37;12.33;;;6.87;;
15142;SDS011;7672;50.834;6.286;2022-10-12T17:06:05;13.67;;;7.43;;
15142;SDS011;7672;50.834;6.286;2022-10-12T17:08:33;10.57;;;6.50;;
15142;SDS011;7672;50.834;6.286;2022-10-12T17:11:08;8.23;;;6.33;;
15142;SDS011;7672;50.834;6.286;2022-10-12T17:13:39;11.07;;;7.03;;
15142;SDS011;7672;50.834;6.286;2022-10-12T17:16:13;8.37;;;6.53;;
15142;SDS011;7672;50.834;6.286;2022-10-12T17:18:58;12.83;;;7.00;;
15142;SDS011;7672;50.834;6.286;2022-10-12T17:21:25;11.20;;;9.20;;